createdAt,value
2016-10-30T00:01:01.664Z,0
2016-10-30T00:02:11.035Z,0
2016-10-30T00:03:20.710Z,0
2016-10-30T00:04:30.997Z,0
2016-10-30T00:05:40.669Z,0
2016-10-30T00:06:50.956Z,0
2016-10-30T00:08:00.942Z,0
2016-10-30T00:09:10.914Z,0
2016-10-30T00:10:20.890Z,0
2016-10-30T00:11:30.882Z,0
2016-10-30T00:12:40.849Z,0
2016-10-30T00:13:51.136Z,0
2016-10-30T00:15:01.142Z,0
2016-10-30T00:16:10.809Z,0
2016-10-30T00:17:21.087Z,0
2016-10-30T00:18:30.760Z,0
2016-10-30T00:19:41.047Z,0
2016-10-30T00:20:51.012Z,0
2016-10-30T00:22:00.992Z,0
2016-10-30T00:23:10.670Z,0
2016-10-30T00:24:20.941Z,0
2016-10-30T00:25:30.938Z,0
2016-10-30T00:26:41.214Z,0
2016-10-30T00:27:51.207Z,0
2016-10-30T00:29:01.179Z,0
2016-10-30T00:30:11.140Z,0
2016-10-30T00:31:21.427Z,0
2016-10-30T00:32:31.723Z,0
2016-10-30T00:33:41.694Z,0
2016-10-30T00:34:51.996Z,0
2016-10-30T00:36:02.282Z,0
2016-10-30T00:37:12.579Z,0
2016-10-30T00:38:22.267Z,0
2016-10-30T00:39:32.569Z,0
2016-10-30T00:40:42.559Z,0
2016-10-30T00:41:52.526Z,0
2016-10-30T00:43:02.828Z,0
2016-10-30T00:44:12.499Z,0
2016-10-30T00:45:21.927Z,0
2016-10-30T00:46:32.213Z,0
2016-10-30T00:47:42.496Z,0
2016-10-30T00:48:52.789Z,0
2016-10-30T00:50:03.069Z,0
2016-10-30T00:51:13.393Z,0
2016-10-30T00:52:23.752Z,0
2016-10-30T00:53:34.038Z,0
2016-10-30T00:54:44.327Z,0
2016-10-30T00:55:54.617Z,0
2016-10-30T00:57:04.593Z,0
2016-10-30T00:58:14.572Z,0
2016-10-30T00:59:24.237Z,0
2016-10-30T01:00:33.914Z,0
2016-10-30T01:01:43.896Z,0
2016-10-30T01:02:54.191Z,0
2016-10-30T01:04:04.218Z,0
2016-10-30T01:05:13.896Z,0
2016-10-30T01:06:23.878Z,0
2016-10-30T01:07:33.860Z,0
2016-10-30T01:08:44.165Z,0
2016-10-30T01:09:53.848Z,0
2016-10-30T01:11:03.825Z,0
2016-10-30T01:12:13.830Z,0
2016-10-30T01:13:24.147Z,0
2016-10-30T01:14:34.433Z,0
2016-10-30T01:15:44.755Z,0
2016-10-30T01:16:54.742Z,0
2016-10-30T01:18:04.718Z,0
2016-10-30T01:19:14.384Z,0
2016-10-30T01:20:24.372Z,0
2016-10-30T01:21:34.679Z,0
2016-10-30T01:22:44.961Z,0
2016-10-30T01:23:54.939Z,0
2016-10-30T01:25:05.229Z,0
2016-10-30T01:26:15.520Z,0
2016-10-30T01:27:25.848Z,0
2016-10-30T01:28:36.149Z,0
2016-10-30T01:29:46.440Z,0
2016-10-30T01:30:56.102Z,0
2016-10-30T01:32:06.061Z,0
2016-10-30T01:33:16.350Z,0
2016-10-30T01:34:26.628Z,0
2016-10-30T01:35:36.596Z,0
2016-10-30T01:36:46.888Z,0
2016-10-30T01:37:56.852Z,0
2016-10-30T01:39:06.527Z,0
2016-10-30T01:40:16.256Z,0
2016-10-30T01:41:26.537Z,0
2016-10-30T01:42:36.855Z,0
2016-10-30T01:43:47.150Z,0
2016-10-30T01:44:57.453Z,0
2016-10-30T01:46:07.135Z,0
2016-10-30T01:47:17.111Z,0
2016-10-30T01:48:27.098Z,0
2016-10-30T01:49:37.398Z,0
2016-10-30T01:50:47.395Z,0
2016-10-30T01:51:57.367Z,0
2016-10-30T01:53:07.385Z,0
2016-10-30T01:54:17.679Z,0
2016-10-30T01:55:27.956Z,0
2016-10-30T01:56:37.949Z,0
2016-10-30T01:57:48.240Z,0
2016-10-30T01:58:58.508Z,0
2016-10-30T02:00:08.493Z,0
2016-10-30T02:01:18.818Z,0
2016-10-30T02:02:28.793Z,0
2016-10-30T02:03:38.775Z,0
2016-10-30T02:04:49.070Z,0
2016-10-30T02:05:59.049Z,0
2016-10-30T02:07:09.380Z,0
2016-10-30T02:08:19.417Z,0
2016-10-30T02:09:29.401Z,0
2016-10-30T02:10:39.409Z,0
2016-10-30T02:11:49.952Z,0
2016-10-30T02:12:59.930Z,0
2016-10-30T02:14:09.304Z,0
2016-10-30T02:15:19.286Z,0
2016-10-30T02:16:29.002Z,0
2016-10-30T02:17:38.976Z,0
2016-10-30T02:18:48.963Z,0
2016-10-30T02:19:59.252Z,0
2016-10-30T02:21:09.545Z,0
2016-10-30T02:22:19.828Z,0
2016-10-30T02:23:29.812Z,0
2016-10-30T02:24:40.081Z,0
2016-10-30T02:25:50.056Z,0
2016-10-30T02:27:00.358Z,0
2016-10-30T02:28:10.390Z,0
2016-10-30T02:29:20.062Z,0
2016-10-30T02:30:30.115Z,0
2016-10-30T02:31:40.480Z,0
2016-10-30T02:32:50.748Z,0
2016-10-30T02:34:01.029Z,0
2016-10-30T02:35:11.336Z,0
2016-10-30T02:36:21.006Z,0
2016-10-30T02:37:31.284Z,0
2016-10-30T02:38:41.257Z,0
2016-10-30T02:39:51.554Z,0
2016-10-30T02:41:01.855Z,0
2016-10-30T02:42:12.139Z,0
2016-10-30T02:43:21.799Z,0
2016-10-30T02:44:31.770Z,0
2016-10-30T02:45:41.481Z,0
2016-10-30T02:46:51.484Z,0
2016-10-30T02:48:01.480Z,0
2016-10-30T02:49:11.776Z,0
2016-10-30T02:50:22.057Z,0
2016-10-30T02:51:32.345Z,0
2016-10-30T02:52:42.616Z,0
2016-10-30T02:53:52.587Z,0
2016-10-30T02:55:02.253Z,0
2016-10-30T02:56:12.546Z,0
2016-10-30T02:57:22.218Z,0
2016-10-30T02:58:31.902Z,0
2016-10-30T02:59:42.220Z,0
2016-10-30T03:00:52.199Z,0
2016-10-30T03:32:20.921Z,0
2016-10-30T03:33:30.591Z,0
2016-10-30T03:34:40.897Z,0
2016-10-30T03:35:51.173Z,0
2016-10-30T03:37:01.495Z,0
2016-10-30T03:38:11.526Z,0
2016-10-30T03:39:21.550Z,0
2016-10-30T03:40:31.530Z,0
2016-10-30T03:41:41.521Z,0
2016-10-30T03:42:51.513Z,0
2016-10-30T03:44:01.486Z,0
2016-10-30T03:45:11.521Z,0
2016-10-30T03:46:21.817Z,0
2016-10-30T03:47:31.486Z,0
2016-10-30T03:48:41.451Z,0
2016-10-30T03:49:51.728Z,0
2016-10-30T03:51:01.708Z,0
2016-10-30T03:52:11.987Z,0
2016-10-30T03:53:22.269Z,0
2016-10-30T03:54:32.561Z,0
2016-10-30T03:55:42.226Z,0
2016-10-30T03:56:51.905Z,0
2016-10-30T03:58:02.191Z,0
2016-10-30T03:59:12.468Z,0
2016-10-30T04:00:22.463Z,0
2016-10-30T04:01:32.757Z,0
2016-10-30T04:02:43.042Z,0
2016-10-30T04:03:52.714Z,0
2016-10-30T04:05:02.380Z,0
2016-10-30T04:06:12.347Z,0
2016-10-30T04:07:21.692Z,0
2016-10-30T04:08:31.976Z,0
2016-10-30T04:09:42.303Z,0
2016-10-30T04:10:51.958Z,0
2016-10-30T04:12:01.922Z,0
2016-10-30T04:13:11.943Z,0
2016-10-30T04:14:21.620Z,0
2016-10-30T04:15:31.910Z,0
2016-10-30T04:16:41.882Z,0
2016-10-30T04:17:51.858Z,0
2016-10-30T04:19:01.837Z,0
2016-10-30T04:20:11.823Z,0
2016-10-30T04:21:21.806Z,0
2016-10-30T04:22:32.090Z,0
2016-10-30T04:23:42.097Z,0
2016-10-30T04:24:52.064Z,0
2016-10-30T04:26:01.109Z,0
2016-10-30T04:27:10.776Z,0
2016-10-30T04:28:20.449Z,0
2016-10-30T04:29:30.431Z,0
2016-10-30T04:30:40.725Z,0
2016-10-30T04:31:50.707Z,0
2016-10-30T04:33:00.726Z,0
2016-10-30T04:34:10.706Z,0
2016-10-30T04:35:20.983Z,0
2016-10-30T04:36:30.964Z,0
2016-10-30T04:37:41.246Z,0
2016-10-30T04:38:51.229Z,0
2016-10-30T04:40:01.221Z,0
2016-10-30T04:41:11.512Z,0
2016-10-30T04:42:21.480Z,0
2016-10-30T04:43:31.456Z,0
2016-10-30T04:44:41.427Z,0
2016-10-30T04:45:51.717Z,0
2016-10-30T04:47:01.991Z,0
2016-10-30T04:48:11.968Z,0
2016-10-30T04:49:21.653Z,0
2016-10-30T04:50:31.656Z,0
2016-10-30T04:51:41.973Z,0
2016-10-30T04:52:52.271Z,0
2016-10-30T04:54:02.241Z,0
2016-10-30T04:55:12.197Z,0
2016-10-30T04:56:22.188Z,0
2016-10-30T04:57:32.158Z,0
2016-10-30T04:58:41.823Z,0
2016-10-30T04:59:52.134Z,0
2016-10-30T05:01:01.807Z,0
2016-10-30T05:02:11.792Z,0
2016-10-30T05:03:21.791Z,0
2016-10-30T05:04:31.780Z,0
2016-10-30T05:05:41.457Z,0
2016-10-30T05:06:51.735Z,0
2016-10-30T05:08:02.012Z,0
2016-10-30T05:09:12.309Z,0
2016-10-30T05:10:22.589Z,0
2016-10-30T05:11:32.876Z,0
2016-10-30T05:12:42.877Z,0
2016-10-30T05:13:52.855Z,0
2016-10-30T05:15:03.116Z,0
2016-10-30T05:16:13.102Z,0
2016-10-30T05:17:23.396Z,0
2016-10-30T05:18:33.686Z,0
2016-10-30T05:19:43.363Z,0
2016-10-30T05:20:53.349Z,0
2016-10-30T05:22:03.651Z,0
2016-10-30T05:23:13.663Z,0
2016-10-30T05:24:23.955Z,0
2016-10-30T05:25:33.923Z,0
2016-10-30T05:26:43.902Z,0
2016-10-30T05:27:54.182Z,0
2016-10-30T05:29:04.461Z,0
2016-10-30T05:30:14.473Z,0
2016-10-30T05:31:24.479Z,0
2016-10-30T05:32:34.762Z,0
2016-10-30T05:33:45.048Z,0
2016-10-30T05:34:55.350Z,0
2016-10-30T05:36:05.611Z,0
2016-10-30T05:37:15.594Z,5
2016-10-30T05:38:25.895Z,5
2016-10-30T05:39:35.911Z,5
2016-10-30T05:40:46.190Z,5
2016-10-30T05:41:56.162Z,5
2016-10-30T05:43:06.447Z,5
2016-10-30T05:44:16.164Z,10
2016-10-30T05:45:26.441Z,10
2016-10-30T05:46:36.728Z,10
2016-10-30T05:47:47.009Z,10
2016-10-30T05:48:56.990Z,15
2016-10-30T05:50:07.267Z,15
2016-10-30T05:51:16.939Z,15
2016-10-30T05:52:26.921Z,15
2016-10-30T05:53:37.209Z,20
2016-10-30T05:54:47.498Z,20
2016-10-30T05:55:57.466Z,20
2016-10-30T05:57:07.447Z,25
2016-10-30T05:58:17.424Z,25
2016-10-30T05:59:27.431Z,30
2016-10-30T06:00:37.418Z,30
2016-10-30T06:01:47.393Z,30
2016-10-30T06:02:57.066Z,30
2016-10-30T06:04:07.092Z,30
2016-10-30T06:05:16.762Z,35
2016-10-30T06:06:26.727Z,40
2016-10-30T06:07:37.001Z,40
2016-10-30T06:08:47.309Z,45
2016-10-30T06:09:57.297Z,45
2016-10-30T06:11:07.602Z,50
2016-10-30T06:12:17.890Z,50
2016-10-30T06:13:28.180Z,55
2016-10-30T06:14:38.464Z,55
2016-10-30T06:15:48.435Z,55
2016-10-30T06:16:58.411Z,55
2016-10-30T06:18:08.690Z,60
2016-10-30T06:19:18.683Z,65
2016-10-30T06:20:28.983Z,65
2016-10-30T06:21:38.954Z,65
2016-10-30T06:22:49.263Z,70
2016-10-30T06:23:59.596Z,70
2016-10-30T06:25:09.572Z,75
2016-10-30T06:26:19.543Z,70
2016-10-30T06:27:29.216Z,70
2016-10-30T06:28:39.197Z,75
2016-10-30T06:29:48.887Z,75
2016-10-30T06:30:58.861Z,75
2016-10-30T06:32:09.153Z,75
2016-10-30T06:33:19.136Z,75
2016-10-30T06:34:29.423Z,70
2016-10-30T06:35:39.735Z,70
2016-10-30T06:36:49.710Z,70
2016-10-30T06:37:59.688Z,70
2016-10-30T06:39:09.977Z,75
2016-10-30T06:40:19.645Z,75
2016-10-30T06:41:29.949Z,90
2016-10-30T06:42:40.267Z,95
2016-10-30T06:43:49.941Z,95
2016-10-30T06:45:00.231Z,95
2016-10-30T06:46:10.242Z,100
2016-10-30T06:47:20.530Z,100
2016-10-30T06:48:30.834Z,105
2016-10-30T06:49:40.533Z,105
2016-10-30T06:50:50.511Z,105
2016-10-30T06:52:00.495Z,110
2016-10-30T06:53:10.803Z,110
2016-10-30T06:54:21.080Z,110
2016-10-30T06:55:31.356Z,110
2016-10-30T06:56:41.633Z,115
2016-10-30T06:57:51.915Z,120
2016-10-30T06:59:02.226Z,120
2016-10-30T07:00:12.498Z,120
2016-10-30T07:01:22.800Z,120
2016-10-30T07:02:33.082Z,120
2016-10-30T07:03:43.083Z,120
2016-10-30T07:04:52.760Z,120
2016-10-30T07:06:03.047Z,125
2016-10-30T07:07:13.330Z,125
2016-10-30T07:08:23.625Z,125
2016-10-30T07:09:33.926Z,125
2016-10-30T07:10:44.224Z,125
2016-10-30T07:11:54.507Z,125
2016-10-30T07:13:04.794Z,125
2016-10-30T07:14:15.083Z,120
2016-10-30T07:15:25.411Z,125
2016-10-30T07:16:35.393Z,130
2016-10-30T07:17:45.684Z,135
2016-10-30T07:18:55.911Z,135
2016-10-30T07:20:05.610Z,140
2016-10-30T07:21:15.619Z,145
2016-10-30T07:22:25.906Z,150
2016-10-30T07:23:36.423Z,150
2016-10-30T07:24:45.780Z,120
2016-10-30T07:25:56.071Z,120
2016-10-30T07:27:06.371Z,120
2016-10-30T07:28:16.654Z,120
2016-10-30T07:29:26.936Z,120
2016-10-30T07:30:36.913Z,120
2016-10-30T07:31:47.231Z,125
2016-10-30T07:32:57.516Z,125
2016-10-30T07:34:07.534Z,125
2016-10-30T07:35:17.211Z,125
2016-10-30T07:36:26.896Z,125
2016-10-30T07:37:36.894Z,125
2016-10-30T07:38:46.565Z,130
2016-10-30T07:39:56.838Z,125
2016-10-30T07:41:07.128Z,125
2016-10-30T07:42:17.419Z,135
2016-10-30T07:43:27.706Z,135
2016-10-30T07:44:37.984Z,145
2016-10-30T07:45:47.700Z,145
2016-10-30T07:46:57.376Z,140
2016-10-30T07:48:07.363Z,135
2016-10-30T07:49:17.653Z,140
2016-10-30T07:50:27.981Z,140
2016-10-30T07:51:37.785Z,145
2016-10-30T07:52:47.455Z,150
2016-10-30T07:53:57.441Z,155
2016-10-30T07:55:07.736Z,155
2016-10-30T07:56:18.054Z,150
2016-10-30T07:57:28.036Z,155
2016-10-30T07:58:38.013Z,160
2016-10-30T07:59:48.305Z,160
2016-10-30T08:00:58.296Z,160
2016-10-30T08:02:08.618Z,155
2016-10-30T08:03:18.595Z,160
2016-10-30T08:04:28.905Z,180
2016-10-30T08:05:38.883Z,180
2016-10-30T08:06:48.875Z,195
2016-10-30T08:07:58.860Z,230
2016-10-30T08:09:08.538Z,195
2016-10-30T08:10:18.824Z,200
2016-10-30T08:11:29.116Z,215
2016-10-30T08:12:39.107Z,260
2016-10-30T08:13:49.106Z,260
2016-10-30T08:14:59.402Z,240
2016-10-30T08:16:09.695Z,205
2016-10-30T08:17:19.990Z,210
2016-10-30T08:18:30.301Z,195
2016-10-30T08:19:40.284Z,195
2016-10-30T08:20:49.993Z,195
2016-10-30T08:22:00.041Z,190
2016-10-30T08:23:10.398Z,195
2016-10-30T08:24:20.415Z,200
2016-10-30T08:25:30.461Z,210
2016-10-30T08:26:40.144Z,230
2016-10-30T08:27:50.435Z,235
2016-10-30T08:29:00.435Z,230
2016-10-30T08:30:10.739Z,215
2016-10-30T08:31:20.747Z,205
2016-10-30T08:32:30.735Z,210
2016-10-30T08:33:40.739Z,190
2016-10-30T08:34:50.464Z,200
2016-10-30T08:36:00.821Z,175
2016-10-30T08:37:11.174Z,170
2016-10-30T08:38:20.841Z,175
2016-10-30T08:39:30.522Z,165
2016-10-30T08:40:40.814Z,165
2016-10-30T08:41:50.965Z,170
2016-10-30T08:43:01.247Z,175
2016-10-30T08:44:11.248Z,185
2016-10-30T08:45:21.328Z,185
2016-10-30T08:46:31.416Z,185
2016-10-30T08:47:41.719Z,215
2016-10-30T08:48:52.040Z,230
2016-10-30T08:50:02.025Z,225
2016-10-30T08:51:12.324Z,230
2016-10-30T08:52:22.643Z,235
2016-10-30T08:53:32.707Z,250
2016-10-30T08:54:43.045Z,245
2016-10-30T08:55:53.111Z,245
2016-10-30T08:57:03.117Z,240
2016-10-30T08:58:13.119Z,240
2016-10-30T08:59:22.829Z,250
2016-10-30T09:00:32.836Z,260
2016-10-30T09:01:42.260Z,265
2016-10-30T09:02:52.613Z,290
2016-10-30T09:04:02.689Z,245
2016-10-30T09:05:13.029Z,290
2016-10-30T09:06:23.068Z,235
2016-10-30T09:07:33.064Z,225
2016-10-30T09:08:42.774Z,225
2016-10-30T09:09:52.471Z,225
2016-10-30T09:11:02.792Z,225
2016-10-30T09:12:13.147Z,225
2016-10-30T09:13:23.474Z,230
2016-10-30T09:14:33.477Z,220
2016-10-30T09:15:43.469Z,210
2016-10-30T09:16:53.462Z,210
2016-10-30T09:18:03.756Z,205
2016-10-30T09:19:14.071Z,230
2016-10-30T09:20:23.767Z,195
2016-10-30T09:21:33.773Z,195
2016-10-30T09:22:43.790Z,185
2016-10-30T09:23:54.086Z,185
2016-10-30T09:25:04.077Z,190
2016-10-30T09:26:14.413Z,195
2016-10-30T09:27:24.733Z,215
2016-10-30T09:28:34.780Z,225
2016-10-30T09:29:45.074Z,250
2016-10-30T09:30:54.785Z,240
2016-10-30T09:32:04.471Z,245
2016-10-30T09:33:14.469Z,255
2016-10-30T09:34:24.778Z,245
2016-10-30T09:35:34.497Z,245
2016-10-30T09:36:44.504Z,240
2016-10-30T09:37:54.827Z,235
2016-10-30T09:39:05.197Z,230
2016-10-30T09:40:15.182Z,225
2016-10-30T09:41:25.162Z,205
2016-10-30T09:42:35.158Z,195
2016-10-30T09:43:45.201Z,195
2016-10-30T09:44:55.535Z,190
2016-10-30T09:46:05.879Z,175
2016-10-30T09:47:15.613Z,170
2016-10-30T09:48:26.036Z,180
2016-10-30T09:49:36.423Z,190
2016-10-30T09:50:46.402Z,195
2016-10-30T09:51:56.722Z,195
2016-10-30T09:53:07.098Z,200
2016-10-30T09:54:17.105Z,215
2016-10-30T09:55:27.434Z,255
2016-10-30T09:56:37.757Z,240
2016-10-30T09:57:48.136Z,270
2016-10-30T09:58:58.179Z,240
2016-10-30T10:00:08.494Z,235
2016-10-30T10:01:18.796Z,230
2016-10-30T10:02:28.817Z,235
2016-10-30T10:03:38.865Z,265
2016-10-30T10:04:48.589Z,200
2016-10-30T10:05:58.376Z,190
2016-10-30T10:07:08.673Z,155
2016-10-30T10:08:18.736Z,175
2016-10-30T10:09:29.089Z,215
2016-10-30T10:10:39.135Z,190
2016-10-30T10:11:48.821Z,195
2016-10-30T10:12:58.549Z,210
2016-10-30T10:14:08.662Z,195
2016-10-30T10:15:19.031Z,190
2016-10-30T10:16:29.349Z,205
2016-10-30T10:17:39.670Z,245
2016-10-30T10:18:50.031Z,240
2016-10-30T10:20:00.037Z,275
2016-10-30T10:21:10.098Z,340
2016-10-30T10:22:20.132Z,240
2016-10-30T10:23:30.475Z,240
2016-10-30T10:24:40.546Z,290
2016-10-30T10:25:50.547Z,255
2016-10-30T10:27:00.872Z,145
2016-10-30T10:28:11.189Z,140
2016-10-30T10:29:20.920Z,155
2016-10-30T10:30:31.371Z,155
2016-10-30T10:31:41.056Z,165
2016-10-30T10:32:51.389Z,160
2016-10-30T10:34:01.509Z,145
2016-10-30T10:35:11.818Z,130
2016-10-30T10:36:21.825Z,115
2016-10-30T10:37:31.883Z,110
2016-10-30T10:38:41.906Z,95
2016-10-30T10:39:52.215Z,100
2016-10-30T10:41:01.899Z,120
2016-10-30T10:42:11.615Z,130
2016-10-30T10:43:21.928Z,115
2016-10-30T10:44:32.344Z,120
2016-10-30T10:45:42.356Z,100
2016-10-30T10:46:52.697Z,90
2016-10-30T10:48:03.065Z,85
2016-10-30T10:49:13.074Z,90
2016-10-30T10:50:23.423Z,100
2016-10-30T10:51:33.725Z,95
2016-10-30T10:52:43.771Z,85
2016-10-30T10:53:54.082Z,85
2016-10-30T10:55:04.399Z,85
2016-10-30T10:56:14.391Z,90
2016-10-30T10:57:24.769Z,90
2016-10-30T10:58:34.465Z,95
2016-10-30T10:59:44.465Z,100
2016-10-30T11:00:54.462Z,105
2016-10-30T11:02:04.874Z,115
2016-10-30T11:03:14.877Z,120
2016-10-30T11:04:25.187Z,120
2016-10-30T11:05:35.194Z,120
2016-10-30T11:06:45.503Z,130
2016-10-30T11:07:55.558Z,135
2016-10-30T11:09:05.560Z,145
2016-10-30T11:10:15.562Z,160
2016-10-30T11:11:25.622Z,160
2016-10-30T11:12:35.623Z,165
2016-10-30T11:13:45.923Z,170
2016-10-30T11:14:55.918Z,170
2016-10-30T11:16:05.901Z,175
2016-10-30T11:17:16.209Z,180
2016-10-30T11:18:26.507Z,190
2016-10-30T11:19:36.581Z,200
2016-10-30T11:20:46.889Z,200
2016-10-30T11:21:56.916Z,200
2016-10-30T11:23:07.224Z,205
2016-10-30T11:24:17.271Z,205
2016-10-30T11:25:27.625Z,205
2016-10-30T11:26:37.332Z,205
2016-10-30T11:27:47.625Z,215
2016-10-30T11:28:57.635Z,225
2016-10-30T11:30:07.621Z,230
2016-10-30T11:31:17.928Z,235
2016-10-30T11:32:27.636Z,250
2016-10-30T11:33:37.672Z,305
2016-10-30T11:34:47.349Z,260
2016-10-30T11:35:57.646Z,205
2016-10-30T11:37:07.954Z,190
2016-10-30T11:38:18.264Z,175
2016-10-30T11:39:28.565Z,165
2016-10-30T11:40:38.872Z,155
2016-10-30T11:41:48.881Z,155
2016-10-30T11:42:58.875Z,150
2016-10-30T11:44:08.899Z,145
2016-10-30T11:45:19.205Z,145
2016-10-30T11:46:29.530Z,140
2016-10-30T11:47:39.546Z,135
2016-10-30T11:48:49.547Z,135
2016-10-30T11:49:59.552Z,130
2016-10-30T11:51:09.567Z,115
2016-10-30T11:52:19.874Z,115
2016-10-30T11:53:29.550Z,120
2016-10-30T11:54:39.872Z,110
2016-10-30T11:55:50.161Z,100
2016-10-30T11:56:59.233Z,85
2016-10-30T11:58:08.957Z,90
2016-10-30T11:59:18.951Z,100
2016-10-30T12:00:28.645Z,125
2016-10-30T12:01:38.944Z,145
2016-10-30T12:02:49.243Z,160
2016-10-30T12:03:59.228Z,180
2016-10-30T12:05:08.913Z,195
2016-10-30T12:06:19.219Z,205
2016-10-30T12:07:28.906Z,215
2016-10-30T12:08:39.232Z,225
2016-10-30T12:09:48.943Z,220
2016-10-30T12:10:58.916Z,240
2016-10-30T12:12:08.608Z,245
2016-10-30T12:13:18.609Z,250
2016-10-30T12:14:28.264Z,265
2016-10-30T12:15:38.581Z,270
2016-10-30T12:16:48.895Z,275
2016-10-30T12:17:59.177Z,295
2016-10-30T12:19:09.162Z,330
2016-10-30T12:20:19.499Z,350
2016-10-30T12:21:29.501Z,340
2016-10-30T12:22:39.804Z,325
2016-10-30T12:23:50.168Z,315
2016-10-30T12:25:00.505Z,315
2016-10-30T12:26:10.805Z,310
2016-10-30T12:27:20.501Z,305
2016-10-30T12:28:30.796Z,280
2016-10-30T12:29:41.103Z,180
2016-10-30T12:30:51.114Z,190
2016-10-30T12:32:01.426Z,165
2016-10-30T12:33:10.804Z,165
2016-10-30T12:34:21.110Z,160
2016-10-30T12:35:31.111Z,175
2016-10-30T12:36:41.424Z,165
2016-10-30T12:37:51.725Z,180
2016-10-30T12:39:01.706Z,190
2016-10-30T12:40:12.003Z,160
2016-10-30T12:41:21.700Z,160
2016-10-30T12:42:32.060Z,150
2016-10-30T12:43:42.095Z,150
2016-10-30T12:44:52.387Z,155
2016-10-30T12:46:02.378Z,150
2016-10-30T12:47:12.715Z,150
2016-10-30T12:48:22.730Z,150
2016-10-30T12:49:32.750Z,145
2016-10-30T12:50:43.064Z,140
2016-10-30T12:51:53.367Z,135
2016-10-30T12:53:03.061Z,125
2016-10-30T12:54:12.440Z,120
2016-10-30T12:55:22.755Z,115
2016-10-30T12:56:33.062Z,105
2016-10-30T12:57:43.069Z,90
2016-10-30T12:58:53.071Z,85
2016-10-30T13:00:03.375Z,85
2016-10-30T13:01:13.687Z,95
2016-10-30T13:02:23.383Z,100
2016-10-30T13:03:33.368Z,100
2016-10-30T13:04:43.676Z,100
2016-10-30T13:05:54.003Z,100
2016-10-30T13:07:04.349Z,105
2016-10-30T13:08:14.399Z,100
2016-10-30T13:09:24.092Z,95
2016-10-30T13:10:34.077Z,85
2016-10-30T13:11:44.067Z,85
2016-10-30T13:12:54.070Z,95
2016-10-30T13:14:04.078Z,100
2016-10-30T13:15:14.382Z,100
2016-10-30T13:16:24.677Z,90
2016-10-30T13:17:34.993Z,85
2016-10-30T13:18:45.315Z,90
2016-10-30T13:19:54.999Z,85
2016-10-30T13:21:05.296Z,80
2016-10-30T13:22:15.304Z,75
2016-10-30T13:23:25.301Z,70
2016-10-30T13:24:35.528Z,80
2016-10-30T13:25:45.825Z,85
2016-10-30T13:26:56.124Z,85
2016-10-30T13:28:06.439Z,85
2016-10-30T13:29:16.426Z,85
2016-10-30T13:30:26.748Z,85
2016-10-30T13:31:36.751Z,90
2016-10-30T13:32:47.048Z,95
2016-10-30T13:33:57.375Z,95
2016-10-30T13:35:07.689Z,95
2016-10-30T13:36:17.062Z,90
2016-10-30T13:37:27.046Z,90
2016-10-30T13:38:37.017Z,95
2016-10-30T13:39:47.332Z,105
2016-10-30T13:40:57.056Z,100
2016-10-30T13:42:06.715Z,100
2016-10-30T13:43:16.393Z,95
2016-10-30T13:44:26.694Z,85
2016-10-30T13:45:37.021Z,85
2016-10-30T13:46:46.719Z,85
2016-10-30T13:47:57.003Z,90
2016-10-30T13:49:07.001Z,85
2016-10-30T13:50:17.297Z,95
2016-10-30T13:51:27.572Z,105
2016-10-30T13:52:37.576Z,100
2016-10-30T13:53:47.909Z,95
2016-10-30T13:54:57.899Z,80
2016-10-30T13:56:07.297Z,80
2016-10-30T13:57:16.673Z,80
2016-10-30T13:58:26.980Z,90
2016-10-30T13:59:36.970Z,85
2016-10-30T14:00:46.970Z,80
2016-10-30T14:01:56.361Z,80
2016-10-30T14:03:06.376Z,105
2016-10-30T14:04:16.082Z,75
2016-10-30T14:05:25.750Z,80
2016-10-30T14:06:35.775Z,75
2016-10-30T14:07:46.064Z,75
2016-10-30T14:08:56.058Z,75
2016-10-30T14:10:06.061Z,70
2016-10-30T14:11:15.748Z,70
2016-10-30T14:12:26.065Z,75
2016-10-30T14:13:35.777Z,70
2016-10-30T14:14:46.082Z,70
2016-10-30T14:15:56.110Z,70
2016-10-30T14:17:06.426Z,70
2016-10-30T14:18:16.554Z,70
2016-10-30T14:19:26.891Z,70
2016-10-30T14:20:37.196Z,70
2016-10-30T14:21:47.229Z,70
2016-10-30T14:22:57.223Z,60
2016-10-30T14:24:07.539Z,60
2016-10-30T14:25:17.853Z,55
2016-10-30T14:26:27.859Z,55
2016-10-30T14:27:38.176Z,55
2016-10-30T14:28:48.490Z,55
2016-10-30T14:29:58.489Z,55
2016-10-30T14:31:08.528Z,55
2016-10-30T14:32:18.851Z,50
2016-10-30T14:33:28.558Z,55
2016-10-30T14:34:38.254Z,55
2016-10-30T14:35:47.968Z,55
2016-10-30T14:36:57.961Z,55
2016-10-30T14:38:07.342Z,55
2016-10-30T14:39:17.637Z,55
2016-10-30T14:40:27.636Z,55
2016-10-30T14:41:37.336Z,50
2016-10-30T14:42:47.632Z,50
2016-10-30T14:43:57.330Z,45
2016-10-30T14:45:07.638Z,45
2016-10-30T14:46:17.948Z,40
2016-10-30T14:47:28.241Z,45
2016-10-30T14:48:38.007Z,40
2016-10-30T14:49:48.008Z,40
2016-10-30T14:50:58.004Z,40
2016-10-30T14:52:08.006Z,35
2016-10-30T14:53:18.022Z,35
2016-10-30T14:54:28.322Z,35
2016-10-30T14:55:38.641Z,35
2016-10-30T14:56:48.952Z,35
2016-10-30T14:57:58.944Z,35
2016-10-30T14:59:08.941Z,35
2016-10-30T15:00:18.939Z,35
2016-10-30T15:01:29.296Z,35
2016-10-30T15:02:38.988Z,30
2016-10-30T15:03:49.004Z,30
2016-10-30T15:04:58.720Z,30
2016-10-30T15:06:07.790Z,25
2016-10-30T15:07:17.550Z,25
2016-10-30T15:08:27.245Z,25
2016-10-30T15:09:37.565Z,25
2016-10-30T15:10:47.890Z,25
2016-10-30T15:11:57.262Z,20
2016-10-30T15:13:07.592Z,20
2016-10-30T15:14:17.916Z,20
2016-10-30T15:15:28.248Z,20
2016-10-30T15:16:38.571Z,20
2016-10-30T15:17:48.246Z,15
2016-10-30T15:18:58.238Z,15
2016-10-30T15:20:08.551Z,15
2016-10-30T15:21:18.856Z,15
2016-10-30T15:22:29.149Z,15
2016-10-30T15:23:38.828Z,15
2016-10-30T15:24:48.818Z,10
2016-10-30T15:25:59.163Z,10
2016-10-30T15:27:09.153Z,10
2016-10-30T15:28:19.466Z,10
2016-10-30T15:29:29.458Z,10
2016-10-30T15:30:39.765Z,5
2016-10-30T15:31:49.756Z,5
2016-10-30T15:33:00.075Z,5
2016-10-30T15:34:10.084Z,5
2016-10-30T15:35:20.373Z,5
2016-10-30T15:36:30.361Z,5
2016-10-30T15:37:40.659Z,5
2016-10-30T15:38:50.334Z,5
2016-10-30T15:40:00.649Z,0
2016-10-30T15:41:10.672Z,0
2016-10-30T15:42:20.349Z,0
2016-10-30T15:43:30.371Z,0
2016-10-30T15:44:40.684Z,0
2016-10-30T15:45:50.680Z,0
2016-10-30T15:47:00.988Z,0
2016-10-30T15:48:10.686Z,0
2016-10-30T15:49:20.687Z,0
2016-10-30T15:50:30.984Z,0
2016-10-30T15:51:41.011Z,0
2016-10-30T15:52:51.011Z,0
2016-10-30T15:54:00.388Z,0
2016-10-30T15:55:10.684Z,0
2016-10-30T15:56:20.679Z,0
2016-10-30T15:57:31.047Z,0
2016-10-30T15:58:41.342Z,0
2016-10-30T15:59:50.709Z,0
2016-10-30T16:01:00.077Z,0
2016-10-30T16:02:10.361Z,0
2016-10-30T16:03:20.347Z,0
2016-10-30T16:04:30.025Z,0
2016-10-30T16:05:39.710Z,0
2016-10-30T16:06:49.698Z,0
2016-10-30T16:07:59.997Z,0
2016-10-30T16:09:10.023Z,0
2016-10-30T16:10:19.737Z,0
2016-10-30T16:11:30.030Z,0
2016-10-30T16:12:40.337Z,0
2016-10-30T16:13:50.648Z,0
2016-10-30T16:15:00.656Z,0
2016-10-30T16:16:10.952Z,0
2016-10-30T16:17:20.967Z,0
2016-10-30T16:18:30.948Z,0
2016-10-30T16:19:41.260Z,0
2016-10-30T16:20:51.243Z,0
2016-10-30T16:22:01.070Z,0
2016-10-30T16:23:11.439Z,0
2016-10-30T16:24:21.732Z,0
2016-10-30T16:25:31.788Z,0
2016-10-30T16:26:41.811Z,0
2016-10-30T16:27:51.807Z,0
2016-10-30T16:29:01.494Z,0
2016-10-30T16:30:11.483Z,0
2016-10-30T16:31:21.178Z,0
2016-10-30T16:32:31.499Z,0
2016-10-30T16:33:41.798Z,0
2016-10-30T16:34:51.853Z,0
2016-10-30T16:36:02.134Z,0
2016-10-30T16:37:12.429Z,0
2016-10-30T16:38:22.717Z,0
2016-10-30T16:39:33.069Z,0
2016-10-30T16:40:43.345Z,0
2016-10-30T16:41:53.654Z,0
2016-10-30T16:43:03.643Z,0
2016-10-30T16:44:13.640Z,0
2016-10-30T16:45:23.353Z,0
2016-10-30T16:46:33.648Z,0
2016-10-30T16:47:43.640Z,0
2016-10-30T16:48:54.022Z,0
2016-10-30T16:50:04.012Z,0
2016-10-30T16:51:14.059Z,0
2016-10-30T16:52:24.352Z,0
2016-10-30T16:53:34.376Z,0
2016-10-30T16:54:44.404Z,0
2016-10-30T16:55:54.086Z,0
2016-10-30T16:57:04.409Z,0
2016-10-30T16:58:14.720Z,0
2016-10-30T16:59:25.030Z,0
2016-10-30T17:00:35.027Z,0
2016-10-30T17:01:45.037Z,0
2016-10-30T17:02:55.349Z,0
2016-10-30T17:04:05.340Z,0
2016-10-30T17:05:15.655Z,0
2016-10-30T17:06:25.342Z,0
2016-10-30T17:07:35.335Z,0
2016-10-30T17:08:45.331Z,0
2016-10-30T17:09:55.637Z,0
2016-10-30T17:11:05.924Z,0